createdAt,value
2017-03-12T00:00:10.801Z,69.66
2017-03-12T00:00:51.248Z,69.85
2017-03-12T00:01:31.690Z,69.85
2017-03-12T00:02:12.139Z,69.85
2017-03-12T00:02:52.594Z,69.66
2017-03-12T00:03:33.039Z,69.46
2017-03-12T00:04:13.480Z,69.66
2017-03-12T00:04:53.914Z,69.56
2017-03-12T00:05:34.360Z,70.23
2017-03-12T00:06:14.809Z,70.23
2017-03-12T00:06:55.254Z,69.94
2017-03-12T00:07:35.705Z,70.04
2017-03-12T00:08:16.159Z,70.32
2017-03-12T00:08:56.605Z,69.94
2017-03-12T00:09:37.051Z,70.04
2017-03-12T00:10:17.488Z,70.04
2017-03-12T00:10:57.927Z,70.32
2017-03-12T00:11:38.370Z,70.61
2017-03-12T00:12:18.813Z,70.79
2017-03-12T00:12:59.264Z,70.32
2017-03-12T00:13:39.706Z,70.61
2017-03-12T00:14:20.148Z,70.23
2017-03-12T00:15:00.581Z,70.89
2017-03-12T00:15:41.026Z,70.32
2017-03-12T00:16:21.478Z,70.38
2017-03-12T00:17:01.920Z,70.42
2017-03-12T00:17:42.376Z,70.76
2017-03-12T00:18:22.827Z,70.67
2017-03-12T00:19:03.274Z,71.14
2017-03-12T00:19:43.701Z,71.43
2017-03-12T00:20:24.153Z,71.43
2017-03-12T00:21:05.213Z,71.43
2017-03-12T00:21:45.663Z,71.71
2017-03-12T00:22:26.105Z,71.23
2017-03-12T00:23:06.549Z,71.62
2017-03-12T00:23:46.994Z,71.62
2017-03-12T00:24:27.431Z,71.52
2017-03-12T00:25:07.884Z,71.52
2017-03-12T00:25:48.327Z,71.71
2017-03-12T00:26:28.769Z,71.81
2017-03-12T00:27:09.210Z,72.28
2017-03-12T00:27:49.655Z,72.09
2017-03-12T00:28:30.098Z,71.9
2017-03-12T00:29:10.535Z,72.28
2017-03-12T00:29:50.992Z,72
2017-03-12T00:30:31.420Z,72.09
2017-03-12T00:31:11.869Z,71.9
2017-03-12T00:31:52.312Z,72
2017-03-12T00:32:32.760Z,71.9
2017-03-12T00:33:13.210Z,72.09
2017-03-12T00:33:53.657Z,72.47
2017-03-12T00:34:34.102Z,72
2017-03-12T00:35:14.540Z,72.09
2017-03-12T00:35:54.981Z,72
2017-03-12T00:36:35.430Z,72
2017-03-12T00:37:15.871Z,72
2017-03-12T00:37:56.334Z,72.56
2017-03-12T00:38:36.757Z,72.56
2017-03-12T00:39:17.201Z,72.56
2017-03-12T00:39:57.647Z,72.28
2017-03-12T00:40:38.083Z,72.56
2017-03-12T00:41:18.535Z,72.85
2017-03-12T00:41:58.980Z,72.85
2017-03-12T00:42:39.430Z,73.23
2017-03-12T00:43:19.883Z,73.04
2017-03-12T00:44:00.328Z,73.33
2017-03-12T00:44:40.769Z,73.33
2017-03-12T00:45:21.206Z,73.42
2017-03-12T00:46:01.646Z,73.42
2017-03-12T00:46:42.085Z,73.42
2017-03-12T00:47:22.534Z,73.04
2017-03-12T00:48:02.977Z,72.95
2017-03-12T00:48:43.417Z,73.61
2017-03-12T00:49:23.874Z,73.33
2017-03-12T00:50:04.311Z,73.23
2017-03-12T00:50:44.753Z,72.95
2017-03-12T00:51:25.204Z,73.71
2017-03-12T00:52:05.647Z,73.61
2017-03-12T00:52:46.098Z,73.42
2017-03-12T00:53:26.561Z,73.71
2017-03-12T00:54:06.993Z,73.42
2017-03-12T00:54:47.436Z,73.42
2017-03-12T00:55:27.889Z,74.08
2017-03-12T00:56:08.310Z,73.04
2017-03-12T00:56:48.756Z,73.14
2017-03-12T00:57:29.204Z,73.76
2017-03-12T00:58:09.681Z,73.38
2017-03-12T00:58:50.102Z,73.48
2017-03-12T00:59:30.540Z,73.61
2017-03-12T01:00:10.986Z,73.8
2017-03-12T01:00:51.427Z,73.76
2017-03-12T01:01:31.861Z,73.61
2017-03-12T01:02:12.309Z,73.76
2017-03-12T01:02:53.531Z,73.52
2017-03-12T01:03:33.974Z,73.86
2017-03-12T01:04:14.410Z,73.48
2017-03-12T01:04:54.830Z,73.61
2017-03-12T01:05:35.281Z,73.67
2017-03-12T01:06:15.722Z,73.42
2017-03-12T01:06:56.161Z,73.52
2017-03-12T01:07:36.610Z,73.52
2017-03-12T01:08:17.057Z,73.67
2017-03-12T01:08:57.505Z,74.05
2017-03-12T01:09:37.957Z,73.76
2017-03-12T01:10:18.402Z,73.96
2017-03-12T01:10:58.840Z,73.76
2017-03-12T01:11:39.279Z,73.67
2017-03-12T01:12:19.719Z,73.57
2017-03-12T01:13:00.160Z,73.48
2017-03-12T01:13:40.609Z,73.48
2017-03-12T01:14:21.063Z,73.38
2017-03-12T01:15:01.511Z,73.86
2017-03-12T01:15:41.953Z,73.67
2017-03-12T01:16:23.308Z,73.38
2017-03-12T01:17:03.751Z,73.99
2017-03-12T01:17:44.201Z,73.1
2017-03-12T01:18:24.636Z,73.48
2017-03-12T01:19:05.081Z,73.14
2017-03-12T01:19:45.527Z,73.04
2017-03-12T01:20:25.972Z,72.95
2017-03-12T01:21:06.417Z,73.29
2017-03-12T01:21:46.857Z,73.29
2017-03-12T01:22:27.307Z,72.85
2017-03-12T01:23:07.750Z,73.23
2017-03-12T01:23:48.197Z,72.85
2017-03-12T01:24:28.643Z,72.56
2017-03-12T01:25:09.080Z,73.19
2017-03-12T01:25:49.530Z,72.34
2017-03-12T01:26:29.974Z,72.85
2017-03-12T01:27:10.421Z,72.63
2017-03-12T01:27:50.870Z,72.72
2017-03-12T01:28:31.319Z,72.56
2017-03-12T01:29:11.764Z,72.81
2017-03-12T01:29:52.218Z,72.81
2017-03-12T01:30:32.667Z,73
2017-03-12T01:31:13.120Z,73.29
2017-03-12T01:31:53.561Z,73.96
2017-03-12T01:32:34.008Z,73.48
2017-03-12T01:33:14.446Z,73.19
2017-03-12T01:33:54.897Z,73.76
2017-03-12T01:34:35.349Z,73.67
2017-03-12T01:35:15.790Z,73.57
2017-03-12T01:35:56.244Z,73.76
2017-03-12T01:36:36.685Z,73.67
2017-03-12T01:37:17.128Z,73.67
2017-03-12T01:37:57.552Z,73.38
2017-03-12T01:38:37.997Z,73.29
2017-03-12T01:39:18.441Z,73.57
2017-03-12T01:39:58.890Z,73.57
2017-03-12T01:40:39.334Z,73.48
2017-03-12T01:41:19.776Z,73.57
2017-03-12T01:42:00.204Z,73.48
2017-03-12T01:42:40.651Z,74.05
2017-03-12T01:43:21.102Z,73.86
2017-03-12T01:44:01.550Z,74.52
2017-03-12T01:44:41.999Z,74.24
2017-03-12T01:45:22.451Z,73.57
2017-03-12T01:46:02.899Z,73.67
2017-03-12T01:46:44.316Z,73.67
2017-03-12T01:47:24.762Z,73.67
2017-03-12T01:48:05.217Z,73.48
2017-03-12T01:48:45.668Z,73.86
2017-03-12T01:49:26.110Z,73.96
2017-03-12T01:50:06.557Z,73.86
2017-03-12T01:50:47.000Z,74.15
2017-03-12T01:51:27.468Z,74.05
2017-03-12T01:52:07.871Z,74.24
2017-03-12T01:52:48.313Z,73.57
2017-03-12T01:53:28.747Z,74.33
2017-03-12T01:54:09.194Z,74.15
2017-03-12T01:54:49.652Z,74.33
2017-03-12T01:55:30.091Z,74.43
2017-03-12T01:56:10.532Z,75.09
2017-03-12T01:56:50.985Z,74.43
2017-03-12T01:57:31.442Z,74.9
2017-03-12T01:58:11.889Z,74.9
2017-03-12T01:58:52.338Z,74.62
2017-03-12T01:59:32.790Z,74.71
2017-03-12T02:00:14.132Z,74.81
2017-03-12T02:00:54.583Z,74.81
2017-03-12T02:01:35.019Z,75.38
2017-03-12T02:02:15.473Z,75.09
2017-03-12T02:02:55.917Z,74.71
2017-03-12T02:03:37.134Z,74.9
2017-03-12T02:04:17.570Z,74.71
2017-03-12T02:04:58.005Z,75.19
2017-03-12T02:05:38.460Z,75.19
2017-03-12T02:06:18.915Z,74.9
2017-03-12T02:06:59.358Z,74.33
2017-03-12T02:07:41.302Z,74.15
2017-03-12T02:08:21.751Z,73.67
2017-03-12T02:09:02.205Z,73.86
2017-03-12T02:09:42.643Z,74.05
2017-03-12T02:10:23.082Z,74.24
2017-03-12T02:11:03.521Z,73.86
2017-03-12T02:11:43.967Z,73.96
2017-03-12T02:12:24.403Z,73.57
2017-03-12T02:13:04.853Z,73.57
2017-03-12T02:13:45.306Z,73.57
2017-03-12T02:14:26.732Z,73.67
2017-03-12T02:15:07.166Z,73.57
2017-03-12T02:15:47.611Z,73.48
2017-03-12T02:16:28.061Z,73.86
2017-03-12T02:17:08.496Z,73.67
2017-03-12T02:17:48.932Z,74.15
2017-03-12T02:18:29.373Z,74.71
2017-03-12T02:19:09.812Z,74.24
2017-03-12T02:19:50.259Z,73.86
2017-03-12T02:20:30.708Z,73.67
2017-03-12T02:21:11.174Z,73.57
2017-03-12T02:21:51.626Z,73.57
2017-03-12T02:22:32.064Z,73.57
2017-03-12T02:23:12.515Z,73.76
2017-03-12T02:23:52.960Z,73.19
2017-03-12T02:24:33.396Z,73.29
2017-03-12T02:25:13.840Z,73.1
2017-03-12T02:25:54.283Z,73.48
2017-03-12T02:26:34.731Z,73.57
2017-03-12T02:27:15.160Z,73.67
2017-03-12T02:27:55.603Z,73.19
2017-03-12T02:28:36.041Z,73.19
2017-03-12T02:29:16.466Z,73.67
2017-03-12T02:29:56.920Z,73.57
2017-03-12T02:30:37.360Z,73.57
2017-03-12T02:31:17.812Z,73.57
2017-03-12T02:31:58.265Z,74.33
2017-03-12T02:32:38.707Z,74.52
2017-03-12T02:33:19.148Z,74.33
2017-03-12T02:33:59.588Z,74.62
2017-03-12T02:34:40.035Z,74.49
2017-03-12T02:35:20.484Z,74.58
2017-03-12T02:36:00.922Z,74.58
2017-03-12T02:36:41.361Z,74.62
2017-03-12T02:37:21.801Z,74.81
2017-03-12T02:38:02.256Z,74.87
2017-03-12T02:38:42.683Z,74.9
2017-03-12T02:39:23.806Z,74.52
2017-03-12T02:40:04.247Z,74.71
2017-03-12T02:40:44.682Z,75
2017-03-12T02:41:25.126Z,74.62
2017-03-12T02:42:05.565Z,74.15
2017-03-12T02:42:46.035Z,74.33
2017-03-12T02:43:26.481Z,74.39
2017-03-12T02:44:06.929Z,74.33
2017-03-12T02:44:47.383Z,74.15
2017-03-12T02:45:27.825Z,74.43
2017-03-12T02:46:08.271Z,74.15
2017-03-12T02:46:48.710Z,74.3
2017-03-12T02:47:29.150Z,74.43
2017-03-12T02:48:09.599Z,74.68
2017-03-12T02:48:50.045Z,74.52
2017-03-12T02:49:30.493Z,74.68
2017-03-12T02:50:10.937Z,74.58
2017-03-12T02:50:51.378Z,74.58
2017-03-12T02:51:31.831Z,74.71
2017-03-12T02:52:12.271Z,74.9
2017-03-12T02:52:52.715Z,74.52
2017-03-12T02:53:33.163Z,74.68
2017-03-12T02:54:13.602Z,74.87
2017-03-12T02:54:54.050Z,74.43
2017-03-12T02:55:34.489Z,74.33
2017-03-12T02:56:15.633Z,74.43
2017-03-12T02:56:56.898Z,74.62
2017-03-12T02:57:37.343Z,74.49
2017-03-12T02:58:17.794Z,74.62
2017-03-12T02:58:58.239Z,74.3
2017-03-12T02:59:38.692Z,74.33
2017-03-12T03:00:19.154Z,73.57
2017-03-12T03:00:59.596Z,73.57
2017-03-12T03:01:40.040Z,73.86
2017-03-12T03:02:20.467Z,73
2017-03-12T03:03:00.920Z,73.29
2017-03-12T03:03:41.364Z,73.1
2017-03-12T03:04:21.955Z,73
2017-03-12T03:05:02.391Z,73.19
2017-03-12T03:05:42.843Z,73.1
2017-03-12T03:06:23.288Z,72.53
2017-03-12T03:07:03.737Z,72.63
2017-03-12T03:07:44.190Z,72.63
2017-03-12T03:08:24.640Z,72.81
2017-03-12T03:09:05.077Z,73.67
2017-03-12T03:09:45.537Z,73.57
2017-03-12T03:10:25.974Z,73.19
2017-03-12T03:11:06.429Z,73.19
2017-03-12T03:11:46.877Z,72.91
2017-03-12T03:12:27.325Z,73.1
2017-03-12T03:13:07.765Z,73
2017-03-12T03:13:48.894Z,72.91
2017-03-12T03:14:29.331Z,72.72
2017-03-12T03:15:09.782Z,72.34
2017-03-12T03:15:50.221Z,72.44
2017-03-12T03:16:30.666Z,72.81
2017-03-12T03:17:11.108Z,72.81
2017-03-12T03:17:51.552Z,72.53
2017-03-12T03:18:31.998Z,72.63
2017-03-12T03:19:12.424Z,72.53
2017-03-12T03:19:52.877Z,71.86
2017-03-12T03:20:33.319Z,71.86
2017-03-12T03:21:13.772Z,72.06
2017-03-12T03:21:54.215Z,71.77
2017-03-12T03:22:34.653Z,71.77
2017-03-12T03:23:15.107Z,71.96
2017-03-12T03:23:55.530Z,71.96
2017-03-12T03:24:35.964Z,72.15
2017-03-12T03:25:16.413Z,72.63
2017-03-12T03:25:56.871Z,72.81
2017-03-12T03:26:37.296Z,71.96
2017-03-12T03:27:17.744Z,72.25
2017-03-12T03:27:58.188Z,71.86
2017-03-12T03:28:38.632Z,71.86
2017-03-12T03:29:19.074Z,71.96
2017-03-12T03:29:59.523Z,72.15
2017-03-12T03:30:39.975Z,71.96
2017-03-12T03:31:20.418Z,72.44
2017-03-12T03:32:00.862Z,72.44
2017-03-12T03:32:41.305Z,72.72
2017-03-12T03:33:21.742Z,72.06
2017-03-12T03:34:02.191Z,71.77
2017-03-12T03:34:42.635Z,71.77
2017-03-12T03:35:23.085Z,71.96
2017-03-12T03:36:03.526Z,72.25
2017-03-12T03:36:43.971Z,72.34
2017-03-12T03:37:24.403Z,72.81
2017-03-12T03:38:04.845Z,73
2017-03-12T03:38:45.309Z,73.1
2017-03-12T03:39:25.755Z,73.86
2017-03-12T03:40:06.203Z,73.63
2017-03-12T03:40:46.650Z,73.44
2017-03-12T03:41:27.104Z,73.67
2017-03-12T03:42:07.532Z,73.57
2017-03-12T03:42:47.991Z,73.38
2017-03-12T03:43:28.415Z,73.57
2017-03-12T03:44:08.867Z,73.76
2017-03-12T03:44:49.320Z,73.72
2017-03-12T03:45:29.758Z,73.96
2017-03-12T03:46:10.208Z,73.57
2017-03-12T03:46:50.792Z,74.01
2017-03-12T03:47:31.164Z,74.87
2017-03-12T03:48:11.611Z,75.05
2017-03-12T03:48:52.051Z,75.72
2017-03-12T03:51:09.809Z,76.01
2017-03-12T03:51:50.235Z,75.91
2017-03-12T03:52:30.666Z,76.2
2017-03-12T03:53:11.111Z,75.62
2017-03-12T03:53:51.561Z,76.01
2017-03-12T03:54:32.007Z,75.91
2017-03-12T03:55:12.455Z,76.1
2017-03-12T03:55:52.897Z,76.01
2017-03-12T03:56:33.333Z,76.2
2017-03-12T03:57:13.770Z,76.1
2017-03-12T03:57:54.211Z,76.01
2017-03-12T03:58:34.655Z,76.1
2017-03-12T03:59:15.103Z,76.1
2017-03-12T03:59:55.546Z,76.29
2017-03-12T04:00:35.989Z,76.39
2017-03-12T04:01:16.427Z,76.29
2017-03-12T04:01:56.871Z,76.39
2017-03-12T04:02:37.314Z,76.95
2017-03-12T04:03:17.771Z,77.14
2017-03-12T04:03:58.214Z,76.57
2017-03-12T04:04:38.665Z,77.05
2017-03-12T04:05:19.110Z,76.86
2017-03-12T04:05:59.543Z,77.24
2017-03-12T04:06:39.987Z,76.76
2017-03-12T04:07:20.439Z,76.48
2017-03-12T04:08:00.884Z,77.24
2017-03-12T04:08:41.321Z,77.24
2017-03-12T04:09:22.369Z,77.05
2017-03-12T04:10:02.818Z,76.67
2017-03-12T04:10:43.268Z,76.48
2017-03-12T04:11:23.700Z,76.67
2017-03-12T04:12:04.149Z,77.14
2017-03-12T04:12:44.597Z,77.14
2017-03-12T04:13:25.032Z,77.05
2017-03-12T04:14:05.486Z,76.95
2017-03-12T04:14:45.923Z,77.05
2017-03-12T04:15:26.368Z,76.95
2017-03-12T04:16:06.811Z,76.86
2017-03-12T04:16:47.255Z,76.76
2017-03-12T04:17:27.704Z,77.14
2017-03-12T04:18:08.133Z,77.33
2017-03-12T04:18:48.580Z,76.76
2017-03-12T04:19:29.018Z,76.67
2017-03-12T04:20:09.475Z,76.48
2017-03-12T04:20:49.912Z,76.57
2017-03-12T04:21:30.352Z,76.67
2017-03-12T04:22:10.795Z,76.57
2017-03-12T04:22:51.241Z,76.95
2017-03-12T04:23:31.688Z,77.24
2017-03-12T04:24:12.123Z,77.14
2017-03-12T04:24:52.582Z,77.43
2017-03-12T04:25:33.003Z,76.95
2017-03-12T04:26:13.455Z,77.24
2017-03-12T04:26:53.894Z,77.29
2017-03-12T04:27:34.327Z,77.58
2017-03-12T04:28:14.773Z,76.95
2017-03-12T04:28:55.218Z,77.14
2017-03-12T04:29:35.656Z,77.33
2017-03-12T04:30:16.099Z,77.52
2017-03-12T04:30:56.546Z,77.24
2017-03-12T04:31:36.994Z,77.24
2017-03-12T04:32:17.438Z,77.43
2017-03-12T04:32:57.886Z,77.24
2017-03-12T04:33:38.329Z,77.05
2017-03-12T04:34:18.771Z,76.95
2017-03-12T04:34:59.214Z,77.24
2017-03-12T04:35:39.655Z,77.33
2017-03-12T04:36:20.100Z,77.14
2017-03-12T04:37:00.545Z,76.67
2017-03-12T04:37:40.987Z,77.14
2017-03-12T04:38:21.440Z,77.14
2017-03-12T04:39:01.878Z,76.95
2017-03-12T04:39:42.320Z,76.95
2017-03-12T04:40:22.770Z,77.05
2017-03-12T04:41:04.097Z,76.48
2017-03-12T04:41:44.544Z,76.95
2017-03-12T04:42:24.982Z,76.95
2017-03-12T04:43:05.430Z,77.39
2017-03-12T04:43:45.859Z,76.95
2017-03-12T04:44:26.302Z,76.95
2017-03-12T04:45:06.736Z,76.67
2017-03-12T04:45:47.182Z,76.39
2017-03-12T04:46:27.622Z,76.57
2017-03-12T04:47:08.070Z,76.29
2017-03-12T04:47:48.515Z,76.39
2017-03-12T04:48:28.960Z,76.76
2017-03-12T04:49:09.417Z,76.48
2017-03-12T04:49:50.690Z,76.57
2017-03-12T04:50:31.132Z,76.39
2017-03-12T04:51:11.585Z,76.67
2017-03-12T04:51:52.008Z,76.48
2017-03-12T04:52:32.453Z,76.67
2017-03-12T04:53:12.897Z,76.67
2017-03-12T04:53:53.345Z,76.1
2017-03-12T04:54:33.790Z,76.29
2017-03-12T04:55:14.782Z,76.29
2017-03-12T04:55:55.232Z,76.39
2017-03-12T04:56:35.687Z,76.39
2017-03-12T04:57:16.132Z,76.67
2017-03-12T04:57:56.571Z,77.05
2017-03-12T04:58:37.024Z,77.05
2017-03-12T04:59:17.466Z,76.95
2017-03-12T04:59:57.912Z,77.43
2017-03-12T05:00:38.361Z,77.05
2017-03-12T05:01:18.804Z,77.14
2017-03-12T05:01:59.252Z,76.48
2017-03-12T05:02:39.709Z,76.67
2017-03-12T05:03:20.143Z,76.57
2017-03-12T05:04:00.592Z,76.48
2017-03-12T05:04:41.083Z,76.67
2017-03-12T05:05:21.519Z,76.67
2017-03-12T05:06:01.970Z,77.33
2017-03-12T05:06:42.397Z,76.95
2017-03-12T05:07:22.840Z,77.24
2017-03-12T05:08:03.284Z,77.52
2017-03-12T05:08:43.738Z,76.95
2017-03-12T05:09:24.178Z,77.52
2017-03-12T05:10:04.622Z,77.14
2017-03-12T05:10:45.072Z,77.33
2017-03-12T05:11:25.512Z,77.05
2017-03-12T05:12:05.965Z,77.14
2017-03-12T05:12:46.411Z,77.96
2017-03-12T05:13:26.862Z,77.81
2017-03-12T05:14:07.306Z,77.81
2017-03-12T05:14:47.778Z,77.39
2017-03-12T05:15:28.222Z,77.52
2017-03-12T05:16:08.673Z,77.24
2017-03-12T05:16:49.118Z,77.43
2017-03-12T05:17:29.557Z,77.24
2017-03-12T05:18:09.993Z,77.33
2017-03-12T05:18:50.432Z,77.01
2017-03-12T05:19:30.885Z,76.95
2017-03-12T05:20:11.325Z,77.24
2017-03-12T05:20:51.777Z,76.92
2017-03-12T05:21:32.221Z,77.71
2017-03-12T05:22:12.658Z,76.92
2017-03-12T05:22:53.105Z,76.95
2017-03-12T05:23:33.537Z,77.05
2017-03-12T05:24:13.989Z,76.67
2017-03-12T05:24:54.432Z,77.14
2017-03-12T05:25:34.881Z,76.95
2017-03-12T05:26:15.342Z,76.95
2017-03-12T05:26:55.785Z,76.92
2017-03-12T05:27:36.223Z,77.24
2017-03-12T05:28:16.660Z,77.11
2017-03-12T05:28:57.109Z,77.05
2017-03-12T05:29:37.551Z,77.14
2017-03-12T05:30:17.999Z,77.71
2017-03-12T05:30:58.446Z,77.71
2017-03-12T05:31:38.898Z,77.62
2017-03-12T05:32:19.343Z,77.62
2017-03-12T05:32:59.784Z,77.86
2017-03-12T05:33:40.215Z,77.71
2017-03-12T05:34:21.507Z,77.14
2017-03-12T05:35:01.940Z,77.62
2017-03-12T05:35:42.393Z,77.43
2017-03-12T05:36:22.833Z,77.62
2017-03-12T05:37:03.282Z,77.24
2017-03-12T05:37:43.711Z,77.39
2017-03-12T05:38:24.144Z,77.58
2017-03-12T05:39:04.590Z,77.39
2017-03-12T05:39:45.040Z,77.52
2017-03-12T05:40:25.483Z,77.52
2017-03-12T05:41:05.933Z,77.14
2017-03-12T05:41:46.378Z,77.2
2017-03-12T05:42:26.850Z,77.05
2017-03-12T05:43:07.250Z,77.62
2017-03-12T05:43:47.695Z,77.43
2017-03-12T05:44:28.148Z,77.01
2017-03-12T05:45:08.582Z,77.43
2017-03-12T05:45:50.007Z,77.14
2017-03-12T05:46:30.450Z,77.29
2017-03-12T05:47:10.900Z,77.39
2017-03-12T05:47:51.340Z,77.58
2017-03-12T05:48:31.775Z,77.58
2017-03-12T05:49:12.220Z,77.67
2017-03-12T05:49:52.653Z,77.48
2017-03-12T05:50:33.095Z,77.24
2017-03-12T05:51:13.534Z,77.58
2017-03-12T05:51:53.981Z,77.33
2017-03-12T05:52:34.436Z,77.33
2017-03-12T05:53:14.878Z,77.29
2017-03-12T05:53:55.306Z,77.52
2017-03-12T05:54:35.742Z,76.92
2017-03-12T05:55:16.194Z,77.14
2017-03-12T05:55:56.633Z,76.48
2017-03-12T05:56:37.082Z,77.14
2017-03-12T05:57:17.517Z,76.44
2017-03-12T05:57:57.963Z,76.63
2017-03-12T05:58:38.403Z,76.57
2017-03-12T05:59:18.843Z,76.48
2017-03-12T05:59:59.277Z,76.34
2017-03-12T06:00:39.687Z,76.76
2017-03-12T06:01:20.124Z,76.48
2017-03-12T06:02:01.099Z,76.48
2017-03-12T06:02:41.531Z,76.57
2017-03-12T06:03:21.978Z,76.57
2017-03-12T06:04:02.400Z,76.29
2017-03-12T06:04:42.822Z,76.1
2017-03-12T06:05:23.243Z,76.57
2017-03-12T06:06:03.676Z,76.29
2017-03-12T06:06:45.056Z,76.48
2017-03-12T06:08:37.526Z,75.81
2017-03-12T06:09:17.940Z,75.81
2017-03-12T06:09:58.395Z,76.29
2017-03-12T06:10:38.838Z,75.81
2017-03-12T06:11:19.284Z,75.05
2017-03-12T06:11:59.727Z,75.15
2017-03-12T06:12:40.164Z,74.87
2017-03-12T06:13:20.594Z,74.68
2017-03-12T06:14:01.037Z,74.39
2017-03-12T06:14:41.478Z,74.49
2017-03-12T06:15:21.923Z,74.3
2017-03-12T06:16:02.361Z,74.39
2017-03-12T06:16:42.814Z,74.39
2017-03-12T06:17:23.234Z,74.3
2017-03-12T06:18:03.676Z,73.82
2017-03-12T06:18:44.118Z,73.92
2017-03-12T06:19:24.556Z,73.92
2017-03-12T06:20:04.995Z,73.92
2017-03-12T06:20:45.438Z,73.82
2017-03-12T06:21:25.878Z,73.63
2017-03-12T06:22:06.328Z,74.11
2017-03-12T06:22:46.787Z,73.92
2017-03-12T06:23:27.256Z,73.63
2017-03-12T06:24:07.683Z,73.92
2017-03-12T06:24:48.121Z,73.82
2017-03-12T06:25:28.562Z,73.72
2017-03-12T06:26:09.003Z,73.54
2017-03-12T06:26:49.444Z,73.63
2017-03-12T06:27:29.878Z,73.63
2017-03-12T06:28:10.330Z,73.92
2017-03-12T06:28:50.772Z,73.07
2017-03-12T06:29:31.207Z,73.82
2017-03-12T06:30:11.658Z,73.92
2017-03-12T06:30:52.091Z,73.44
2017-03-12T06:31:32.549Z,73.63
2017-03-12T06:32:12.980Z,73.16
2017-03-12T06:32:53.433Z,73.16
2017-03-12T06:33:33.877Z,72.88
2017-03-12T06:34:16.021Z,72.88
2017-03-12T06:34:56.468Z,72.91
2017-03-12T06:35:36.913Z,72.44
2017-03-12T06:36:17.362Z,72.97
2017-03-12T06:36:57.817Z,72.97
2017-03-12T06:37:38.258Z,72.88
2017-03-12T06:38:18.702Z,73.07
2017-03-12T06:38:59.141Z,72.78
2017-03-12T06:39:39.599Z,72.72
2017-03-12T06:40:20.608Z,72.53
2017-03-12T06:41:01.046Z,72.44
2017-03-12T06:41:41.494Z,72.44
2017-03-12T06:42:21.928Z,72.78
2017-03-12T06:43:02.377Z,72.53
2017-03-12T06:43:42.818Z,71.96
2017-03-12T06:44:23.270Z,71.92
2017-03-12T06:45:03.717Z,71.92
2017-03-12T06:45:44.158Z,72.06
2017-03-12T06:46:24.609Z,73
2017-03-12T06:47:05.049Z,71.86
2017-03-12T06:47:45.492Z,71.86
2017-03-12T06:48:26.602Z,72.53
2017-03-12T06:49:07.049Z,71.96
2017-03-12T06:49:47.485Z,72.06
2017-03-12T06:50:27.935Z,71.67
2017-03-12T06:51:08.388Z,72.15
2017-03-12T06:51:48.831Z,72.06
2017-03-12T06:52:29.286Z,71.77
2017-03-12T06:53:09.727Z,71.86
2017-03-12T06:53:50.171Z,71.67
2017-03-12T06:54:30.618Z,72.06
2017-03-12T06:55:11.063Z,71.39
2017-03-12T06:55:51.501Z,71.58
2017-03-12T06:56:31.951Z,71.67
2017-03-12T06:57:12.398Z,71.39
2017-03-12T06:57:52.848Z,71.2
2017-03-12T06:58:33.298Z,71.01
2017-03-12T06:59:13.746Z,71.77
2017-03-12T06:59:54.186Z,71.48
2017-03-12T07:00:34.625Z,71.11
2017-03-12T07:01:15.076Z,71.3
2017-03-12T07:01:55.524Z,71.48
2017-03-12T07:02:35.978Z,71.3
2017-03-12T07:03:16.417Z,71.11
2017-03-12T07:03:56.869Z,71.01
2017-03-12T07:04:37.307Z,70.25
2017-03-12T07:05:17.745Z,70.54
2017-03-12T07:05:58.191Z,70.44
2017-03-12T07:06:38.627Z,70.73
2017-03-12T07:07:19.079Z,70.44
2017-03-12T07:07:59.521Z,70.63
2017-03-12T07:08:39.973Z,70.54
2017-03-12T07:09:20.940Z,70.82
2017-03-12T07:10:01.383Z,70.63
2017-03-12T07:10:41.827Z,70.73
2017-03-12T07:11:22.265Z,70.54
2017-03-12T07:12:02.710Z,70.35
2017-03-12T07:12:43.153Z,70.44
2017-03-12T07:13:23.593Z,70.73
2017-03-12T07:14:04.043Z,70.54
2017-03-12T07:14:44.486Z,70.54
2017-03-12T07:15:24.928Z,70.54
2017-03-12T07:16:05.387Z,70.25
2017-03-12T07:16:45.824Z,70.54
2017-03-12T07:17:26.267Z,70.06
2017-03-12T07:18:06.718Z,69.87
2017-03-12T07:18:47.160Z,69.96
2017-03-12T07:19:27.613Z,70.19
2017-03-12T07:20:08.062Z,70
2017-03-12T07:20:48.511Z,69.91
2017-03-12T07:21:28.941Z,69.15
2017-03-12T07:22:09.372Z,69.24
2017-03-12T07:22:49.822Z,69.81
2017-03-12T07:23:30.270Z,69.81
2017-03-12T07:24:10.715Z,69.24
2017-03-12T07:24:51.154Z,69.34
2017-03-12T07:25:31.596Z,69.05
2017-03-12T07:26:12.058Z,69.24
2017-03-12T07:26:52.494Z,68.86
2017-03-12T07:27:32.934Z,68.67
2017-03-12T07:28:13.386Z,68.19
2017-03-12T07:28:53.829Z,68.1
2017-03-12T07:29:34.323Z,67.47
2017-03-12T07:30:14.835Z,67.19
2017-03-12T07:30:55.301Z,66.42
2017-03-12T07:31:36.541Z,65.32
2017-03-12T07:32:17.018Z,64.84
2017-03-12T07:32:57.516Z,64.27
2017-03-12T07:33:38.017Z,63.32
2017-03-12T07:34:18.514Z,62.27
2017-03-12T07:34:58.995Z,61.83
2017-03-12T07:35:39.539Z,61.26
2017-03-12T07:36:20.606Z,60.6
2017-03-12T07:37:01.099Z,60.21
2017-03-12T07:37:41.589Z,60.31
2017-03-12T07:38:22.079Z,59.86
2017-03-12T07:39:02.572Z,59.45
2017-03-12T07:39:43.070Z,59.1
2017-03-12T07:40:23.563Z,58.53
2017-03-12T07:41:04.051Z,57.96
2017-03-12T07:41:44.538Z,56.75
2017-03-12T07:42:25.034Z,55.7
2017-03-12T07:43:05.522Z,55.61
2017-03-12T07:43:46.015Z,55.32
2017-03-12T07:44:26.515Z,55.61
2017-03-12T07:45:06.997Z,55.9
2017-03-12T07:45:47.498Z,55.68
2017-03-12T07:46:27.989Z,56.53
2017-03-12T07:47:08.480Z,56.98
2017-03-12T07:47:48.974Z,57.93
2017-03-12T07:48:29.467Z,58.4
2017-03-12T07:49:09.926Z,58.69
2017-03-12T07:49:50.411Z,59.55
2017-03-12T07:50:30.940Z,59.93
2017-03-12T07:51:11.396Z,59.17
2017-03-12T07:51:51.887Z,58.88
2017-03-12T07:52:32.385Z,58.15
2017-03-12T07:53:12.874Z,57.96
2017-03-12T07:53:53.368Z,56.65
2017-03-12T07:54:33.839Z,55.51
2017-03-12T07:55:14.329Z,54.66
2017-03-12T07:55:54.798Z,54.56
2017-03-12T07:56:35.291Z,54.56
2017-03-12T07:57:15.762Z,54.21
2017-03-12T07:57:56.257Z,55.01
2017-03-12T07:58:36.750Z,55.42
2017-03-12T07:59:17.238Z,55.22
2017-03-12T07:59:57.737Z,55.2
2017-03-12T08:00:38.269Z,56.44
2017-03-12T08:01:18.760Z,56.34
2017-03-12T08:01:59.246Z,56.72
2017-03-12T08:02:39.735Z,57.1
2017-03-12T08:03:20.232Z,56.92
2017-03-12T08:04:00.724Z,57.2
2017-03-12T08:04:41.229Z,57.36
2017-03-12T08:05:21.791Z,57.74
2017-03-12T08:06:02.420Z,58.31
2017-03-12T08:06:42.734Z,58.59
2017-03-12T08:07:23.223Z,58.59
2017-03-12T08:08:03.710Z,58.88
2017-03-12T08:08:44.200Z,58.5
2017-03-12T08:09:24.696Z,58.5
2017-03-12T08:10:05.189Z,58.88
2017-03-12T08:10:45.693Z,58.59
2017-03-12T08:11:26.751Z,58.88
2017-03-12T08:12:07.247Z,58.98
2017-03-12T08:12:47.734Z,59.17
2017-03-12T08:13:28.228Z,59.27
2017-03-12T08:14:08.725Z,59.27
2017-03-12T08:14:49.212Z,59.17
2017-03-12T08:15:29.702Z,59.17
2017-03-12T08:16:10.199Z,59.17
2017-03-12T08:16:50.690Z,59.36
2017-03-12T08:17:31.198Z,59.17
2017-03-12T08:18:11.657Z,59.07
2017-03-12T08:18:52.951Z,59.17
2017-03-12T08:19:33.443Z,59.93
2017-03-12T08:20:13.944Z,59.07
2017-03-12T08:20:54.427Z,58.69
2017-03-12T08:21:35.851Z,59.17
2017-03-12T08:22:16.361Z,59.45
2017-03-12T08:22:56.833Z,58.69
2017-03-12T08:23:37.327Z,58.79
2017-03-12T08:24:17.823Z,58.69
2017-03-12T08:24:58.310Z,58.5
2017-03-12T08:25:38.800Z,58.5
2017-03-12T08:26:19.292Z,58.31
2017-03-12T08:26:59.791Z,58.22
2017-03-12T08:27:40.280Z,58.12
2017-03-12T08:28:20.764Z,57.87
2017-03-12T08:29:01.276Z,57.2
2017-03-12T08:29:41.752Z,57.01
2017-03-12T08:30:22.248Z,55.9
2017-03-12T08:31:02.737Z,55.16
2017-03-12T08:31:43.228Z,53.83
2017-03-12T08:32:23.723Z,53.09
2017-03-12T08:33:04.217Z,51.66
2017-03-12T08:33:44.714Z,50.26
2017-03-12T08:34:25.209Z,49.87
2017-03-12T08:35:05.703Z,50.78
2017-03-12T08:35:47.136Z,51.28
2017-03-12T08:36:27.626Z,50.16
2017-03-12T08:37:08.123Z,49.4
2017-03-12T08:37:48.617Z,47.99
2017-03-12T08:38:29.109Z,48.08
2017-03-12T08:39:09.599Z,47.13
2017-03-12T08:39:50.092Z,47.23
2017-03-12T08:40:30.588Z,47.61
2017-03-12T08:41:11.072Z,47.13
2017-03-12T08:41:51.551Z,47.2
2017-03-12T08:42:32.033Z,47.23
2017-03-12T08:43:12.529Z,45.82
2017-03-12T08:43:53.014Z,44.79
2017-03-12T08:44:33.509Z,44.22
2017-03-12T08:45:14.071Z,44.77
2017-03-12T08:45:54.534Z,44.77